Kezdőlap
METAR-TAF:

METAR-TAF

Repülőterek :

Philip Billard Municipal Airport

Topeka, Kansas, Amerikai Egyesült Államok

földrajzi szélesség: 39-04-21N, földrajzi hosszúság: 095-37-33W, magasság: 268 m

Jelenlegi meteorológiai megfigyelések

A jelentés 44 perccel ezelõtt készült, 19:53 UTC
Déli szél 12 kt
Hőmérséklet 12°C
Páratartalom 38%
Légköri nyomás 1019 hPa
Látótávolság: 16.1 km
Derült ég

METAR: KTOP 221953Z 19012KT 10SM CLR 12/M02 A3009 RMK AO2 SLP193 T01171017

Idő: 14:37 (20:37 UTC)

Előrejelzés

A jelentés 3 órával és 15 perccel ezelõtt készült, 17:22 UTC
Az előrejelzés 22-én 18 óra UTC és 23-én 18 óra UTC között érvényes
Dél-délnyugati szél 12 kt széllökések: 18 kt
Látótávolság: 10 km
Szakadozott felhőzet 20000 lábon
23-én 0000 órától UTC szerint
Déli szél 6 kt
Látótávolság: 10 km
Szakadozott felhőzet 20000 lábon

TAF: KTOP 221722Z 2218/2318 20012G18KT P6SM BKN200 FM230000 19006KT P6SM BKN200

Meteorológiai megfigyelések és előrejelzések több, mint 4000 repülőtéren (METAR és TAF jelentéseket).

A térképen piros és sárga pontok jelzik az elérhető meteorológiai állomásokat.

Mozgassa az egeret a pont fölött, hogy megjelenjen az állomás neve.

Azután kattintson az időjárási megfigyelések és előrejelzések megtekintéséhez.

A térkép megváltoztatása: kattintson a fekete keresztel jelölt zöld gombra ráközelítéshez, a vonallal jelölt zöld gombra távolításhoz, vagy a zöld nyilakra a szomszédos térképek eléréséhez.


METAR-TAF: